sensor_id;sensor_type;location;lat;lon;timestamp;pressure;altitude;pressure_sealevel;temperature;humidity
41230;BME280;26964;50.428;19.218;2022-10-16T00:02:00;1020.7;;;12.1;72.1
41230;BME280;26964;50.428;19.218;2022-10-16T00:07:01;1020.8;;;12.1;72.2
41230;BME280;26964;50.428;19.218;2022-10-16T00:12:01;1020.8;;;12.1;72.3
41230;BME280;26964;50.428;19.218;2022-10-16T00:17:00;1020.8;;;12.1;72.4
41230;BME280;26964;50.428;19.218;2022-10-16T00:22:01;1020.8;;;12.1;72.4
41230;BME280;26964;50.428;19.218;2022-10-16T00:27:00;1020.8;;;12.1;72.5
41230;BME280;26964;50.428;19.218;2022-10-16T00:32:00;1020.8;;;12.1;72.6
41230;BME280;26964;50.428;19.218;2022-10-16T00:37:00;1020.8;;;12.1;72.7
41230;BME280;26964;50.428;19.218;2022-10-16T00:42:00;1020.9;;;12.0;72.7
41230;BME280;26964;50.428;19.218;2022-10-16T00:47:00;1020.8;;;12.0;72.7
41230;BME280;26964;50.428;19.218;2022-10-16T00:52:00;1020.8;;;11.9;72.7
41230;BME280;26964;50.428;19.218;2022-10-16T00:57:02;1020.8;;;11.8;72.8
41230;BME280;26964;50.428;19.218;2022-10-16T01:02:00;1020.9;;;11.8;72.8
41230;BME280;26964;50.428;19.218;2022-10-16T01:07:06;1020.9;;;11.7;72.9
41230;BME280;26964;50.428;19.218;2022-10-16T01:12:05;1021.0;;;11.6;73.0
41230;BME280;26964;50.428;19.218;2022-10-16T01:17:04;1021.1;;;11.6;73.0
41230;BME280;26964;50.428;19.218;2022-10-16T01:22:00;1021.0;;;11.5;73.1
41230;BME280;26964;50.428;19.218;2022-10-16T01:32:03;1021.0;;;11.3;73.1
41230;BME280;26964;50.428;19.218;2022-10-16T01:37:04;1021.0;;;11.2;73.2
41230;BME280;26964;50.428;19.218;2022-10-16T01:42:04;1020.9;;;11.1;73.3
41230;BME280;26964;50.428;19.218;2022-10-16T01:47:00;1020.9;;;11.0;73.4
41230;BME280;26964;50.428;19.218;2022-10-16T01:52:04;1020.9;;;11.0;73.6
41230;BME280;26964;50.428;19.218;2022-10-16T01:57:00;1020.9;;;11.0;73.8
41230;BME280;26964;50.428;19.218;2022-10-16T02:02:03;1020.9;;;10.9;73.8
41230;BME280;26964;50.428;19.218;2022-10-16T02:07:01;1021.0;;;10.9;73.7
41230;BME280;26964;50.428;19.218;2022-10-16T02:12:03;1021.0;;;10.8;73.8
41230;BME280;26964;50.428;19.218;2022-10-16T02:16:59;1021.2;;;10.8;73.9
41230;BME280;26964;50.428;19.218;2022-10-16T02:22:04;1021.2;;;10.7;74.0
41230;BME280;26964;50.428;19.218;2022-10-16T02:27:05;1021.3;;;10.7;74.2
41230;BME280;26964;50.428;19.218;2022-10-16T02:32:04;1021.2;;;10.7;74.3
41230;BME280;26964;50.428;19.218;2022-10-16T02:37:01;1021.3;;;10.7;74.4
41230;BME280;26964;50.428;19.218;2022-10-16T02:41:59;1021.3;;;10.8;74.5
41230;BME280;26964;50.428;19.218;2022-10-16T02:47:00;1021.2;;;10.8;74.5
41230;BME280;26964;50.428;19.218;2022-10-16T02:52:00;1021.2;;;10.8;74.6
41230;BME280;26964;50.428;19.218;2022-10-16T02:56:59;1021.2;;;10.8;74.6
41230;BME280;26964;50.428;19.218;2022-10-16T03:02:00;1021.3;;;10.8;74.6
41230;BME280;26964;50.428;19.218;2022-10-16T03:07:00;1021.4;;;10.8;74.6
41230;BME280;26964;50.428;19.218;2022-10-16T03:11:59;1021.4;;;10.7;74.6
41230;BME280;26964;50.428;19.218;2022-10-16T03:17:00;1021.5;;;10.7;74.6
41230;BME280;26964;50.428;19.218;2022-10-16T03:22:00;1021.5;;;10.6;74.6
41230;BME280;26964;50.428;19.218;2022-10-16T03:26:59;1021.6;;;10.5;74.7
41230;BME280;26964;50.428;19.218;2022-10-16T03:32:00;1021.5;;;10.4;74.7
41230;BME280;26964;50.428;19.218;2022-10-16T03:36:59;1021.7;;;10.3;74.8
41230;BME280;26964;50.428;19.218;2022-10-16T03:42:00;1021.6;;;10.3;74.8
41230;BME280;26964;50.428;19.218;2022-10-16T03:47:00;1021.6;;;10.2;74.9
41230;BME280;26964;50.428;19.218;2022-10-16T03:51:59;1021.7;;;10.1;74.9
41230;BME280;26964;50.428;19.218;2022-10-16T03:57:00;1021.7;;;10.0;75.0
41230;BME280;26964;50.428;19.218;2022-10-16T04:02:00;1021.6;;;10.0;75.0
41230;BME280;26964;50.428;19.218;2022-10-16T04:06:59;1021.7;;;9.9;75.1
41230;BME280;26964;50.428;19.218;2022-10-16T04:12:00;1021.8;;;9.9;75.2
41230;BME280;26964;50.428;19.218;2022-10-16T04:16:59;1021.8;;;9.8;75.2
41230;BME280;26964;50.428;19.218;2022-10-16T04:21:59;1021.7;;;9.8;75.3
41230;BME280;26964;50.428;19.218;2022-10-16T04:26:59;1021.7;;;9.7;75.3
41230;BME280;26964;50.428;19.218;2022-10-16T04:31:59;1021.8;;;9.7;75.5
41230;BME280;26964;50.428;19.218;2022-10-16T04:37:00;1021.8;;;9.7;75.6
41230;BME280;26964;50.428;19.218;2022-10-16T04:42:00;1021.8;;;9.7;75.6
41230;BME280;26964;50.428;19.218;2022-10-16T04:47:00;1021.8;;;9.7;75.8
41230;BME280;26964;50.428;19.218;2022-10-16T04:52:00;1021.9;;;9.7;75.8
41230;BME280;26964;50.428;19.218;2022-10-16T04:56:59;1021.8;;;9.7;75.9
41230;BME280;26964;50.428;19.218;2022-10-16T05:01:59;1021.7;;;9.7;76.0
41230;BME280;26964;50.428;19.218;2022-10-16T05:06:59;1021.8;;;9.8;76.2
41230;BME280;26964;50.428;19.218;2022-10-16T05:11:59;1021.8;;;9.8;76.2
41230;BME280;26964;50.428;19.218;2022-10-16T05:16:59;1022.0;;;9.9;76.3
41230;BME280;26964;50.428;19.218;2022-10-16T05:21:59;1022.0;;;10.0;76.4
41230;BME280;26964;50.428;19.218;2022-10-16T05:26:59;1022.1;;;10.0;76.4
41230;BME280;26964;50.428;19.218;2022-10-16T05:31:59;1022.2;;;10.1;76.4
41230;BME280;26964;50.428;19.218;2022-10-16T05:37:00;1022.3;;;10.1;76.4
41230;BME280;26964;50.428;19.218;2022-10-16T05:41:59;1022.4;;;10.1;76.3
41230;BME280;26964;50.428;19.218;2022-10-16T05:47:00;1022.4;;;10.1;76.2
41230;BME280;26964;50.428;19.218;2022-10-16T05:52:00;1022.4;;;10.1;76.2
41230;BME280;26964;50.428;19.218;2022-10-16T05:56:59;1022.5;;;10.1;76.3
41230;BME280;26964;50.428;19.218;2022-10-16T06:02:00;1022.6;;;10.1;76.3
41230;BME280;26964;50.428;19.218;2022-10-16T06:07:00;1022.6;;;10.1;76.4
41230;BME280;26964;50.428;19.218;2022-10-16T06:11:59;1022.6;;;10.2;76.6
41230;BME280;26964;50.428;19.218;2022-10-16T06:17:00;1022.7;;;10.3;76.6
41230;BME280;26964;50.428;19.218;2022-10-16T06:22:00;1022.9;;;10.3;76.7
41230;BME280;26964;50.428;19.218;2022-10-16T06:27:00;1022.8;;;10.5;76.8
41230;BME280;26964;50.428;19.218;2022-10-16T06:31:59;1022.9;;;10.6;76.9
41230;BME280;26964;50.428;19.218;2022-10-16T06:37:00;1022.9;;;10.8;77.0
41230;BME280;26964;50.428;19.218;2022-10-16T06:41:59;1023.1;;;11.0;77.1
41230;BME280;26964;50.428;19.218;2022-10-16T06:46:59;1023.0;;;11.1;77.0
41230;BME280;26964;50.428;19.218;2022-10-16T06:52:00;1023.1;;;11.4;77.2
41230;BME280;26964;50.428;19.218;2022-10-16T06:56:59;1023.1;;;11.8;77.2
41230;BME280;26964;50.428;19.218;2022-10-16T07:01:59;1023.1;;;12.1;77.1
41230;BME280;26964;50.428;19.218;2022-10-16T07:07:00;1023.1;;;12.4;77.0
41230;BME280;26964;50.428;19.218;2022-10-16T07:11:59;1023.1;;;12.6;76.9
41230;BME280;26964;50.428;19.218;2022-10-16T07:17:00;1023.1;;;12.9;76.7
41230;BME280;26964;50.428;19.218;2022-10-16T07:22:00;1023.2;;;13.1;76.7
41230;BME280;26964;50.428;19.218;2022-10-16T07:26:59;1023.2;;;13.3;76.4
41230;BME280;26964;50.428;19.218;2022-10-16T07:31:59;1023.4;;;13.4;76.2
41230;BME280;26964;50.428;19.218;2022-10-16T07:37:00;1023.4;;;13.5;76.2
41230;BME280;26964;50.428;19.218;2022-10-16T07:41:59;1023.4;;;13.7;76.2
41230;BME280;26964;50.428;19.218;2022-10-16T07:47:00;1023.2;;;14.0;76.1
41230;BME280;26964;50.428;19.218;2022-10-16T07:51:59;1023.3;;;14.3;75.9
41230;BME280;26964;50.428;19.218;2022-10-16T07:56:59;1023.3;;;14.6;75.8
41230;BME280;26964;50.428;19.218;2022-10-16T08:01:59;1023.4;;;14.8;75.6
41230;BME280;26964;50.428;19.218;2022-10-16T08:07:00;1023.5;;;14.9;75.4
41230;BME280;26964;50.428;19.218;2022-10-16T08:11:59;1023.5;;;15.0;75.3
41230;BME280;26964;50.428;19.218;2022-10-16T08:17:00;1023.5;;;15.2;75.2
41230;BME280;26964;50.428;19.218;2022-10-16T08:22:00;1023.5;;;15.3;74.9
41230;BME280;26964;50.428;19.218;2022-10-16T08:26:59;1023.5;;;15.4;74.9
41230;BME280;26964;50.428;19.218;2022-10-16T08:31:59;1023.5;;;15.6;75.0
41230;BME280;26964;50.428;19.218;2022-10-16T08:37:00;1023.6;;;15.9;74.7
41230;BME280;26964;50.428;19.218;2022-10-16T08:47:05;1023.6;;;16.5;74.4
41230;BME280;26964;50.428;19.218;2022-10-16T08:51:59;1023.7;;;16.8;74.0
41230;BME280;26964;50.428;19.218;2022-10-16T09:02:00;1023.6;;;17.2;73.4
41230;BME280;26964;50.428;19.218;2022-10-16T09:07:04;1023.6;;;17.5;73.2
41230;BME280;26964;50.428;19.218;2022-10-16T09:12:04;1023.6;;;17.7;72.9
41230;BME280;26964;50.428;19.218;2022-10-16T09:17:06;1023.7;;;17.8;72.3
41230;BME280;26964;50.428;19.218;2022-10-16T09:21:59;1023.7;;;17.8;72.2
41230;BME280;26964;50.428;19.218;2022-10-16T09:26:59;1023.8;;;17.9;72.0
41230;BME280;26964;50.428;19.218;2022-10-16T09:37:01;1023.8;;;17.9;71.2
41230;BME280;26964;50.428;19.218;2022-10-16T09:42:00;1023.9;;;18.0;71.3
41230;BME280;26964;50.428;19.218;2022-10-16T09:47:01;1023.9;;;18.2;71.0
41230;BME280;26964;50.428;19.218;2022-10-16T09:52:03;1024.0;;;18.3;70.6
41230;BME280;26964;50.428;19.218;2022-10-16T10:02:03;1023.9;;;18.2;70.1
41230;BME280;26964;50.428;19.218;2022-10-16T10:07:00;1023.9;;;18.2;69.9
41230;BME280;26964;50.428;19.218;2022-10-16T10:11:59;1024.1;;;18.1;69.7
41230;BME280;26964;50.428;19.218;2022-10-16T10:17:02;1024.1;;;18.2;69.8
41230;BME280;26964;50.428;19.218;2022-10-16T10:22:00;1024.0;;;18.2;69.6
41230;BME280;26964;50.428;19.218;2022-10-16T10:27:03;1024.0;;;18.2;69.3
41230;BME280;26964;50.428;19.218;2022-10-16T10:32:06;1024.0;;;18.2;69.3
41230;BME280;26964;50.428;19.218;2022-10-16T10:37:04;1024.1;;;18.3;69.2
41230;BME280;26964;50.428;19.218;2022-10-16T10:47:05;1024.0;;;18.1;68.9
41230;BME280;26964;50.428;19.218;2022-10-16T10:57:02;1023.9;;;18.1;69.0
41230;BME280;26964;50.428;19.218;2022-10-16T11:02:00;1023.9;;;18.2;68.9
41230;BME280;26964;50.428;19.218;2022-10-16T11:07:00;1024.0;;;18.3;68.7
41230;BME280;26964;50.428;19.218;2022-10-16T11:12:05;1023.9;;;18.3;68.7
41230;BME280;26964;50.428;19.218;2022-10-16T11:17:04;1023.9;;;18.3;68.5
41230;BME280;26964;50.428;19.218;2022-10-16T11:22:03;1023.9;;;18.3;68.4
41230;BME280;26964;50.428;19.218;2022-10-16T11:27:04;1024.0;;;18.5;68.6
41230;BME280;26964;50.428;19.218;2022-10-16T11:32:01;1024.0;;;18.6;68.3
41230;BME280;26964;50.428;19.218;2022-10-16T11:37:04;1024.0;;;18.7;68.1
41230;BME280;26964;50.428;19.218;2022-10-16T11:42:03;1024.0;;;18.7;67.7
41230;BME280;26964;50.428;19.218;2022-10-16T11:47:05;1023.9;;;18.6;67.7
41230;BME280;26964;50.428;19.218;2022-10-16T11:52:05;1023.9;;;18.6;67.7
41230;BME280;26964;50.428;19.218;2022-10-16T11:57:03;1023.9;;;18.6;67.7
41230;BME280;26964;50.428;19.218;2022-10-16T12:07:03;1023.9;;;18.7;67.6
41230;BME280;26964;50.428;19.218;2022-10-16T12:11:59;1024.0;;;18.8;67.6
41230;BME280;26964;50.428;19.218;2022-10-16T12:17:00;1023.9;;;18.9;67.4
41230;BME280;26964;50.428;19.218;2022-10-16T12:22:00;1024.0;;;19.1;67.2
41230;BME280;26964;50.428;19.218;2022-10-16T12:26:59;1024.1;;;19.4;67.2
41230;BME280;26964;50.428;19.218;2022-10-16T12:31:59;1024.0;;;19.5;66.4
41230;BME280;26964;50.428;19.218;2022-10-16T12:42:01;1024.1;;;19.5;66.3
41230;BME280;26964;50.428;19.218;2022-10-16T12:46:58;1024.1;;;19.8;66.2
41230;BME280;26964;50.428;19.218;2022-10-16T12:51:59;1024.2;;;19.9;66.0
41230;BME280;26964;50.428;19.218;2022-10-16T12:57:06;1024.1;;;20.0;65.6
41230;BME280;26964;50.428;19.218;2022-10-16T13:07:06;1024.2;;;20.0;65.2
41230;BME280;26964;50.428;19.218;2022-10-16T13:17:04;1024.2;;;19.9;64.9
41230;BME280;26964;50.428;19.218;2022-10-16T13:22:04;1024.2;;;20.0;65.1
41230;BME280;26964;50.428;19.218;2022-10-16T13:27:03;1024.2;;;19.9;64.7
41230;BME280;26964;50.428;19.218;2022-10-16T13:32:00;1024.3;;;19.8;64.6
41230;BME280;26964;50.428;19.218;2022-10-16T13:36:59;1024.4;;;19.7;64.8
41230;BME280;26964;50.428;19.218;2022-10-16T13:42:01;1024.3;;;19.8;64.6
41230;BME280;26964;50.428;19.218;2022-10-16T13:46:59;1024.3;;;19.8;64.6
41230;BME280;26964;50.428;19.218;2022-10-16T13:51:59;1024.3;;;19.8;64.4
41230;BME280;26964;50.428;19.218;2022-10-16T13:57:04;1024.2;;;19.7;64.4
41230;BME280;26964;50.428;19.218;2022-10-16T14:02:00;1024.2;;;19.6;64.4
41230;BME280;26964;50.428;19.218;2022-10-16T14:06:59;1024.3;;;19.6;64.3
41230;BME280;26964;50.428;19.218;2022-10-16T14:12:01;1024.2;;;19.5;64.2
41230;BME280;26964;50.428;19.218;2022-10-16T14:16:59;1024.3;;;19.4;64.4
41230;BME280;26964;50.428;19.218;2022-10-16T14:21:59;1024.3;;;19.3;64.4
41230;BME280;26964;50.428;19.218;2022-10-16T14:26:59;1024.6;;;19.2;64.2
41230;BME280;26964;50.428;19.218;2022-10-16T14:32:00;1024.7;;;19.0;64.3
41230;BME280;26964;50.428;19.218;2022-10-16T14:37:00;1024.8;;;18.9;64.3
41230;BME280;26964;50.428;19.218;2022-10-16T14:41:59;1024.7;;;18.7;64.4
41230;BME280;26964;50.428;19.218;2022-10-16T14:51:59;1024.6;;;18.4;64.6
41230;BME280;26964;50.428;19.218;2022-10-16T14:56:59;1024.7;;;18.4;64.8
41230;BME280;26964;50.428;19.218;2022-10-16T15:01:59;1024.6;;;18.4;64.9
41230;BME280;26964;50.428;19.218;2022-10-16T15:06:58;1024.7;;;18.4;64.9
41230;BME280;26964;50.428;19.218;2022-10-16T15:11:59;1024.7;;;18.4;64.8
41230;BME280;26964;50.428;19.218;2022-10-16T15:16:58;1024.7;;;18.3;64.8
41230;BME280;26964;50.428;19.218;2022-10-16T15:21:58;1024.8;;;18.2;64.8
41230;BME280;26964;50.428;19.218;2022-10-16T15:26:59;1024.8;;;18.0;64.7
41230;BME280;26964;50.428;19.218;2022-10-16T15:31:58;1024.8;;;17.9;64.8
41230;BME280;26964;50.428;19.218;2022-10-16T15:37:02;1024.8;;;17.7;64.8
41230;BME280;26964;50.428;19.218;2022-10-16T15:41:58;1025.0;;;17.6;65.0
41230;BME280;26964;50.428;19.218;2022-10-16T15:46:59;1024.9;;;17.5;65.1
41230;BME280;26964;50.428;19.218;2022-10-16T15:51:59;1024.9;;;17.4;65.2
41230;BME280;26964;50.428;19.218;2022-10-16T15:56:59;1025.0;;;17.3;65.3
41230;BME280;26964;50.428;19.218;2022-10-16T16:02:00;1025.2;;;17.2;65.4
41230;BME280;26964;50.428;19.218;2022-10-16T16:06:58;1025.2;;;17.0;65.5
41230;BME280;26964;50.428;19.218;2022-10-16T16:11:58;1025.2;;;16.9;65.6
41230;BME280;26964;50.428;19.218;2022-10-16T16:16:58;1025.2;;;16.8;65.7
41230;BME280;26964;50.428;19.218;2022-10-16T16:21:58;1025.3;;;16.6;65.8
41230;BME280;26964;50.428;19.218;2022-10-16T16:26:58;1025.3;;;16.5;65.9
41230;BME280;26964;50.428;19.218;2022-10-16T16:31:59;1025.4;;;16.3;66.0
41230;BME280;26964;50.428;19.218;2022-10-16T16:36:58;1025.7;;;16.2;66.1
41230;BME280;26964;50.428;19.218;2022-10-16T16:41:59;1025.6;;;16.0;66.2
41230;BME280;26964;50.428;19.218;2022-10-16T16:46:58;1025.7;;;15.9;66.4
41230;BME280;26964;50.428;19.218;2022-10-16T16:51:59;1025.8;;;15.7;66.5
41230;BME280;26964;50.428;19.218;2022-10-16T16:57:00;1025.8;;;15.6;66.6
41230;BME280;26964;50.428;19.218;2022-10-16T17:01:58;1025.9;;;15.4;66.7
41230;BME280;26964;50.428;19.218;2022-10-16T17:06:59;1025.9;;;15.3;66.8
41230;BME280;26964;50.428;19.218;2022-10-16T17:11:58;1026.0;;;15.2;67.0
41230;BME280;26964;50.428;19.218;2022-10-16T17:16:58;1026.1;;;15.0;67.1
41230;BME280;26964;50.428;19.218;2022-10-16T17:22:01;1026.2;;;14.9;67.2
41230;BME280;26964;50.428;19.218;2022-10-16T17:26:59;1026.2;;;14.8;67.3
41230;BME280;26964;50.428;19.218;2022-10-16T17:31:59;1026.3;;;14.6;67.4
41230;BME280;26964;50.428;19.218;2022-10-16T17:36:59;1026.4;;;14.6;67.6
41230;BME280;26964;50.428;19.218;2022-10-16T17:41:59;1026.4;;;14.5;67.7
41230;BME280;26964;50.428;19.218;2022-10-16T17:46:59;1026.4;;;14.3;67.8
41230;BME280;26964;50.428;19.218;2022-10-16T17:51:59;1026.5;;;14.2;68.0
41230;BME280;26964;50.428;19.218;2022-10-16T18:02:02;1026.6;;;14.0;68.3
41230;BME280;26964;50.428;19.218;2022-10-16T18:06:58;1026.6;;;13.9;68.4
41230;BME280;26964;50.428;19.218;2022-10-16T18:11:58;1026.8;;;13.9;68.6
41230;BME280;26964;50.428;19.218;2022-10-16T18:17:06;1026.8;;;13.8;68.8
41230;BME280;26964;50.428;19.218;2022-10-16T18:22:01;1026.8;;;13.8;68.9
41230;BME280;26964;50.428;19.218;2022-10-16T18:26:58;1026.9;;;13.7;69.0
41230;BME280;26964;50.428;19.218;2022-10-16T18:31:58;1026.9;;;13.7;69.2
41230;BME280;26964;50.428;19.218;2022-10-16T18:36:59;1026.9;;;13.6;69.3
41230;BME280;26964;50.428;19.218;2022-10-16T18:41:59;1027.0;;;13.6;69.5
41230;BME280;26964;50.428;19.218;2022-10-16T18:47:00;1027.1;;;13.6;69.6
41230;BME280;26964;50.428;19.218;2022-10-16T18:52:00;1027.1;;;13.5;69.7
41230;BME280;26964;50.428;19.218;2022-10-16T18:56:58;1027.2;;;13.5;69.9
41230;BME280;26964;50.428;19.218;2022-10-16T19:01:59;1027.3;;;13.5;70.0
41230;BME280;26964;50.428;19.218;2022-10-16T19:06:59;1027.3;;;13.4;70.1
41230;BME280;26964;50.428;19.218;2022-10-16T19:12:04;1027.4;;;13.4;70.2
41230;BME280;26964;50.428;19.218;2022-10-16T19:16:58;1027.4;;;13.4;70.2
41230;BME280;26964;50.428;19.218;2022-10-16T19:21:59;1027.5;;;13.3;70.3
41230;BME280;26964;50.428;19.218;2022-10-16T19:26:59;1027.6;;;13.3;70.4
41230;BME280;26964;50.428;19.218;2022-10-16T19:31:59;1027.6;;;13.2;70.5
41230;BME280;26964;50.428;19.218;2022-10-16T19:36:58;1027.7;;;13.2;70.7
41230;BME280;26964;50.428;19.218;2022-10-16T19:41:59;1027.6;;;13.2;70.8
41230;BME280;26964;50.428;19.218;2022-10-16T19:47:09;1027.7;;;13.2;70.9
41230;BME280;26964;50.428;19.218;2022-10-16T19:52:05;1027.8;;;13.1;71.0
41230;BME280;26964;50.428;19.218;2022-10-16T19:56:58;1027.8;;;13.1;71.0
41230;BME280;26964;50.428;19.218;2022-10-16T20:01:58;1027.9;;;13.1;71.1
41230;BME280;26964;50.428;19.218;2022-10-16T20:06:59;1027.9;;;13.0;71.1
41230;BME280;26964;50.428;19.218;2022-10-16T20:11:59;1028.0;;;13.0;71.2
41230;BME280;26964;50.428;19.218;2022-10-16T20:16:59;1028.0;;;13.0;71.3
41230;BME280;26964;50.428;19.218;2022-10-16T20:21:58;1028.0;;;12.9;71.3
41230;BME280;26964;50.428;19.218;2022-10-16T20:26:58;1028.2;;;12.9;71.3
41230;BME280;26964;50.428;19.218;2022-10-16T20:31:58;1028.2;;;12.9;71.4
41230;BME280;26964;50.428;19.218;2022-10-16T20:36:58;1028.2;;;12.8;71.4
41230;BME280;26964;50.428;19.218;2022-10-16T20:41:58;1028.2;;;12.8;71.5
41230;BME280;26964;50.428;19.218;2022-10-16T20:46:59;1028.3;;;12.7;71.5
41230;BME280;26964;50.428;19.218;2022-10-16T20:51:58;1028.3;;;12.6;71.6
41230;BME280;26964;50.428;19.218;2022-10-16T20:56:58;1028.3;;;12.6;71.6
41230;BME280;26964;50.428;19.218;2022-10-16T21:01:58;1028.3;;;12.5;71.7
41230;BME280;26964;50.428;19.218;2022-10-16T21:06:58;1028.4;;;12.4;71.8
41230;BME280;26964;50.428;19.218;2022-10-16T21:11:58;1028.6;;;12.4;71.9
41230;BME280;26964;50.428;19.218;2022-10-16T21:16:59;1028.6;;;12.4;71.9
41230;BME280;26964;50.428;19.218;2022-10-16T21:21:58;1028.8;;;12.3;72.0
41230;BME280;26964;50.428;19.218;2022-10-16T21:26:58;1028.8;;;12.3;72.0
41230;BME280;26964;50.428;19.218;2022-10-16T21:31:58;1028.7;;;12.2;72.1
41230;BME280;26964;50.428;19.218;2022-10-16T21:36:59;1028.8;;;12.1;72.3
41230;BME280;26964;50.428;19.218;2022-10-16T21:41:58;1028.8;;;12.1;72.4
41230;BME280;26964;50.428;19.218;2022-10-16T21:46:58;1028.9;;;12.1;72.5
41230;BME280;26964;50.428;19.218;2022-10-16T21:51:59;1029.0;;;12.1;72.6
41230;BME280;26964;50.428;19.218;2022-10-16T21:56:58;1028.9;;;12.0;72.6
41230;BME280;26964;50.428;19.218;2022-10-16T22:01:59;1029.0;;;12.0;72.7
41230;BME280;26964;50.428;19.218;2022-10-16T22:06:59;1029.1;;;12.0;72.8
41230;BME280;26964;50.428;19.218;2022-10-16T22:11:58;1029.0;;;12.0;72.9
41230;BME280;26964;50.428;19.218;2022-10-16T22:16:58;1029.1;;;12.0;72.9
41230;BME280;26964;50.428;19.218;2022-10-16T22:21:59;1029.1;;;11.9;72.9
41230;BME280;26964;50.428;19.218;2022-10-16T22:26:58;1029.1;;;11.9;72.9
41230;BME280;26964;50.428;19.218;2022-10-16T22:31:58;1029.1;;;11.8;73.0
41230;BME280;26964;50.428;19.218;2022-10-16T22:36:58;1029.1;;;11.8;73.1
41230;BME280;26964;50.428;19.218;2022-10-16T22:41:58;1029.2;;;11.8;73.4
41230;BME280;26964;50.428;19.218;2022-10-16T22:46:58;1029.2;;;11.8;73.3
41230;BME280;26964;50.428;19.218;2022-10-16T22:51:59;1029.2;;;11.7;73.3
41230;BME280;26964;50.428;19.218;2022-10-16T22:56:58;1029.2;;;11.7;73.4
41230;BME280;26964;50.428;19.218;2022-10-16T23:01:58;1029.2;;;11.6;73.5
41230;BME280;26964;50.428;19.218;2022-10-16T23:06:58;1029.3;;;11.6;73.6
41230;BME280;26964;50.428;19.218;2022-10-16T23:11:58;1029.2;;;11.6;73.8
41230;BME280;26964;50.428;19.218;2022-10-16T23:16:58;1029.3;;;11.6;73.6
41230;BME280;26964;50.428;19.218;2022-10-16T23:21:58;1029.4;;;11.6;73.7
41230;BME280;26964;50.428;19.218;2022-10-16T23:26:58;1029.3;;;11.5;73.8
41230;BME280;26964;50.428;19.218;2022-10-16T23:31:57;1029.3;;;11.5;73.9
41230;BME280;26964;50.428;19.218;2022-10-16T23:36:57;1029.4;;;11.5;73.9
41230;BME280;26964;50.428;19.218;2022-10-16T23:41:58;1029.4;;;11.5;74.0
41230;BME280;26964;50.428;19.218;2022-10-16T23:46:58;1029.5;;;11.4;74.1
41230;BME280;26964;50.428;19.218;2022-10-16T23:51:58;1029.5;;;11.4;74.1
41230;BME280;26964;50.428;19.218;2022-10-16T23:56:58;1029.5;;;11.4;74.2
